createdAt,value
2018-11-29T00:00:49.510Z,10.63
2018-11-29T00:03:19.314Z,6.77
2018-11-29T00:05:55.682Z,8.23
2018-11-29T00:08:26.622Z,8.80
2018-11-29T00:10:56.536Z,6.80
2018-11-29T00:13:26.376Z,9.27
2018-11-29T00:15:56.367Z,6.83
2018-11-29T00:18:26.487Z,6.07
2018-11-29T00:20:56.299Z,6.83
2018-11-29T00:23:26.317Z,5.03
2018-11-29T00:25:56.259Z,5.50
2018-11-29T00:28:26.213Z,9.97
2018-11-29T00:30:56.164Z,5.33
2018-11-29T00:33:25.975Z,6.67
2018-11-29T00:35:55.894Z,6.33
2018-11-29T00:38:26.039Z,6.13
2018-11-29T00:40:55.889Z,5.90
2018-11-29T00:43:25.840Z,4.47
2018-11-29T00:45:55.671Z,5.00
2018-11-29T00:48:25.672Z,3.53
2018-11-29T00:50:55.583Z,2.83
2018-11-29T00:53:25.503Z,4.30
2018-11-29T00:55:55.520Z,3.40
2018-11-29T00:58:25.430Z,4.30
2018-11-29T01:00:55.348Z,3.33
2018-11-29T01:03:25.262Z,4.90
2018-11-29T01:05:55.075Z,3.40
2018-11-29T01:08:25.095Z,3.53
2018-11-29T01:10:54.920Z,3.27
2018-11-29T01:13:24.825Z,2.37
2018-11-29T01:15:54.763Z,2.27
2018-11-29T01:18:24.651Z,2.40
2018-11-29T01:20:54.489Z,2.73
2018-11-29T01:23:24.336Z,2.00
2018-11-29T01:25:54.295Z,1.93
2018-11-29T01:28:24.207Z,1.03
2018-11-29T01:30:54.123Z,2.30
2018-11-29T01:33:24.063Z,1.43
2018-11-29T01:35:53.956Z,0.83
2018-11-29T01:38:23.973Z,1.23
2018-11-29T01:40:54.115Z,1.07
2018-11-29T01:43:24.018Z,0.97
2018-11-29T01:45:53.919Z,0.77
2018-11-29T01:48:23.837Z,0.80
2018-11-29T01:50:53.851Z,0.83
2018-11-29T01:53:23.770Z,0.57
2018-11-29T01:55:54.263Z,0.50
2018-11-29T01:58:24.222Z,0.93
2018-11-29T02:00:54.131Z,0.97
2018-11-29T02:03:23.955Z,0.57
2018-11-29T02:05:53.855Z,1.53
2018-11-29T02:08:23.873Z,0.40
2018-11-29T02:10:54.095Z,0.63
2018-11-29T02:13:24.115Z,1.10
2018-11-29T02:15:54.051Z,0.60
2018-11-29T02:18:23.996Z,0.70
2018-11-29T02:20:53.963Z,1.93
2018-11-29T02:23:23.887Z,1.27
2018-11-29T02:25:53.995Z,1.20
2018-11-29T02:28:24.011Z,0.50
2018-11-29T02:30:53.893Z,1.07
2018-11-29T02:33:23.831Z,1.30
2018-11-29T02:35:53.783Z,1.80
2018-11-29T02:38:23.683Z,1.70
2018-11-29T02:40:53.893Z,1.87
2018-11-29T02:43:23.874Z,0.90
2018-11-29T02:45:53.830Z,1.93
2018-11-29T02:48:23.739Z,1.90
2018-11-29T02:50:53.568Z,3.43
2018-11-29T02:53:23.467Z,2.10
2018-11-29T02:55:53.552Z,2.70
2018-11-29T02:58:23.462Z,2.17
2018-11-29T03:00:53.430Z,2.23
2018-11-29T03:03:23.304Z,2.27
2018-11-29T03:05:53.247Z,2.60
2018-11-29T03:08:23.163Z,4.33
2018-11-29T03:10:53.080Z,3.23
2018-11-29T03:13:22.996Z,2.93
2018-11-29T03:15:52.908Z,2.33
2018-11-29T03:18:22.927Z,1.40
2018-11-29T03:20:52.753Z,2.33
2018-11-29T03:23:22.652Z,2.80
2018-11-29T03:25:52.738Z,2.33
2018-11-29T03:28:22.689Z,2.87
2018-11-29T03:30:52.603Z,3.27
2018-11-29T03:33:22.419Z,1.77
2018-11-29T03:35:52.340Z,4.27
2018-11-29T03:38:22.383Z,1.60
2018-11-29T03:40:52.264Z,1.97
2018-11-29T03:43:22.647Z,1.80
2018-11-29T03:45:52.639Z,1.80
2018-11-29T03:48:22.628Z,4.00
2018-11-29T03:50:52.537Z,5.57
2018-11-29T03:53:22.352Z,1.10
2018-11-29T03:55:52.275Z,2.30
2018-11-29T03:58:22.315Z,1.73
2018-11-29T04:00:52.216Z,3.83
2018-11-29T04:03:22.239Z,3.47
2018-11-29T04:05:52.143Z,2.60
2018-11-29T04:08:22.148Z,3.03
2018-11-29T04:10:52.096Z,4.20
2018-11-29T04:13:22.081Z,3.63
2018-11-29T04:15:51.995Z,4.90
2018-11-29T04:18:21.916Z,6.67
2018-11-29T04:20:51.822Z,2.23
2018-11-29T04:23:21.799Z,5.83
2018-11-29T04:25:51.859Z,2.97
2018-11-29T04:28:21.875Z,4.83
2018-11-29T04:30:51.692Z,3.37
2018-11-29T04:33:21.604Z,3.30
2018-11-29T04:35:51.547Z,4.50
2018-11-29T04:38:21.447Z,5.57
2018-11-29T04:40:51.351Z,4.50
2018-11-29T04:43:21.161Z,2.30
2018-11-29T04:46:01.695Z,4.50
2018-11-29T04:48:31.549Z,5.73
2018-11-29T04:51:01.455Z,5.30
2018-11-29T04:53:31.269Z,4.87
2018-11-29T04:56:01.186Z,11.93
2018-11-29T04:58:31.223Z,5.67
2018-11-29T05:01:01.116Z,6.83
2018-11-29T05:03:31.026Z,8.07
2018-11-29T05:06:01.132Z,7.70
2018-11-29T05:08:31.063Z,7.90
2018-11-29T05:11:00.979Z,5.57
2018-11-29T05:13:30.789Z,6.27
2018-11-29T05:16:00.811Z,6.97
2018-11-29T05:18:30.851Z,7.20
2018-11-29T05:21:00.805Z,7.50
2018-11-29T05:23:30.760Z,9.10
2018-11-29T05:26:00.683Z,8.00
2018-11-29T05:28:30.693Z,4.87
2018-11-29T05:31:00.631Z,5.67
2018-11-29T05:33:30.590Z,5.73
2018-11-29T05:36:00.536Z,6.40
2018-11-29T05:38:30.452Z,5.47
2018-11-29T05:41:00.367Z,7.47
2018-11-29T05:43:30.184Z,7.97
2018-11-29T05:46:00.094Z,9.97
2018-11-29T05:48:30.112Z,2.97
2018-11-29T05:50:59.956Z,6.77
2018-11-29T05:53:29.958Z,4.87
2018-11-29T05:55:59.767Z,5.60
2018-11-29T05:58:30.800Z,7.83
2018-11-29T06:01:03.474Z,8.70
2018-11-29T06:03:33.604Z,11.57
2018-11-29T06:06:03.407Z,7.87
2018-11-29T06:08:33.456Z,7.63
2018-11-29T06:11:03.444Z,13.93
2018-11-29T06:13:33.256Z,13.30
2018-11-29T06:16:03.378Z,9.67
2018-11-29T06:18:33.431Z,9.83
2018-11-29T06:21:03.327Z,11.10
2018-11-29T06:23:33.226Z,12.03
2018-11-29T06:26:03.143Z,14.80
2018-11-29T06:28:33.056Z,11.63
2018-11-29T06:31:02.998Z,11.93
2018-11-29T06:33:32.949Z,12.93
2018-11-29T06:36:02.904Z,12.87
2018-11-29T06:38:32.816Z,15.57
2018-11-29T06:41:03.003Z,13.00
2018-11-29T06:43:32.988Z,13.00
2018-11-29T06:46:03.076Z,13.80
2018-11-29T06:48:33.092Z,12.27
2018-11-29T06:51:02.964Z,14.10
2018-11-29T06:53:37.900Z,13.20
2018-11-29T06:56:07.852Z,14.03
2018-11-29T06:58:37.767Z,13.53
2018-11-29T07:01:07.683Z,14.23
2018-11-29T07:03:37.628Z,20.43
2018-11-29T07:06:08.230Z,16.90
2018-11-29T07:08:38.042Z,12.60
2018-11-29T07:11:08.265Z,10.00
2018-11-29T07:13:38.207Z,15.77
2018-11-29T07:16:08.312Z,12.60
2018-11-29T07:18:38.319Z,10.23
2018-11-29T07:21:18.843Z,17.67
2018-11-29T07:23:48.799Z,14.90
2018-11-29T07:26:18.839Z,11.17
2018-11-29T07:28:48.727Z,14.87
2018-11-29T07:31:18.647Z,12.43
2018-11-29T07:33:48.456Z,13.27
2018-11-29T07:36:18.371Z,22.70
2018-11-29T07:38:48.418Z,14.00
2018-11-29T07:41:18.355Z,13.20
2018-11-29T07:43:48.319Z,16.03
2018-11-29T07:46:18.236Z,18.70
2018-11-29T07:48:48.189Z,15.60
2018-11-29T07:51:18.202Z,12.50
2018-11-29T07:53:48.149Z,10.87
2018-11-29T07:56:18.098Z,15.50
2018-11-29T07:58:51.571Z,19.10
2018-11-29T08:01:18.035Z,17.50
2018-11-29T08:03:47.999Z,13.53
2018-11-29T08:06:17.882Z,13.93
2018-11-29T08:08:47.880Z,15.87
2018-11-29T08:11:17.691Z,18.27
2018-11-29T08:13:47.880Z,14.80
2018-11-29T08:16:18.134Z,18.40
2018-11-29T08:18:48.180Z,15.87
2018-11-29T08:21:17.973Z,16.00
2018-11-29T08:23:47.886Z,19.07
2018-11-29T08:26:17.696Z,12.33
2018-11-29T08:28:47.723Z,18.17
2018-11-29T08:31:17.654Z,15.43
2018-11-29T08:33:47.544Z,12.00
2018-11-29T08:36:17.456Z,17.00
2018-11-29T08:38:47.396Z,20.20
2018-11-29T08:41:17.596Z,17.17
2018-11-29T08:43:47.517Z,17.00
2018-11-29T08:46:17.498Z,16.40
2018-11-29T08:48:47.442Z,18.33
2018-11-29T08:51:17.356Z,16.80
2018-11-29T08:53:47.199Z,20.40
2018-11-29T08:56:17.187Z,17.40
2018-11-29T08:58:47.203Z,15.97
2018-11-29T09:01:17.119Z,17.07
2018-11-29T09:03:47.067Z,21.23
2018-11-29T09:06:16.950Z,23.73
2018-11-29T09:08:46.968Z,24.30
2018-11-29T09:11:16.779Z,21.30
2018-11-29T09:13:46.700Z,26.57
2018-11-29T09:16:16.636Z,26.27
2018-11-29T09:18:46.589Z,24.70
2018-11-29T09:21:16.571Z,21.47
2018-11-29T09:23:46.487Z,19.07
2018-11-29T09:26:16.371Z,20.27
2018-11-29T09:28:46.288Z,18.13
2018-11-29T09:31:16.204Z,14.60
2018-11-29T09:33:46.732Z,16.97
2018-11-29T09:36:16.650Z,16.80
2018-11-29T09:38:46.587Z,17.33
2018-11-29T09:41:16.580Z,15.43
2018-11-29T09:43:46.384Z,13.37
2018-11-29T09:46:16.309Z,14.60
2018-11-29T09:48:46.448Z,15.17
2018-11-29T09:51:16.355Z,16.63
2018-11-29T09:53:47.088Z,20.33
2018-11-29T09:56:16.992Z,15.13
2018-11-29T09:58:47.007Z,12.93
2018-11-29T10:01:16.818Z,15.43
2018-11-29T10:03:46.739Z,8.27
2018-11-29T10:06:17.191Z,8.83
2018-11-29T10:08:47.077Z,6.33
2018-11-29T10:11:16.992Z,13.70
2018-11-29T10:13:46.940Z,8.20
2018-11-29T10:16:16.924Z,9.20
2018-11-29T10:18:47.915Z,4.53
2018-11-29T10:21:17.879Z,11.97
2018-11-29T10:23:47.825Z,3.90
2018-11-29T10:26:17.720Z,4.57
2018-11-29T10:28:47.728Z,4.43
2018-11-29T10:31:17.546Z,7.47
2018-11-29T10:33:47.455Z,6.83
2018-11-29T10:36:17.405Z,5.90
2018-11-29T10:38:47.388Z,8.40
2018-11-29T10:41:17.305Z,10.17
2018-11-29T10:43:47.114Z,8.37
2018-11-29T10:46:17.028Z,9.27
2018-11-29T10:48:47.175Z,8.00
2018-11-29T10:51:17.235Z,4.10
2018-11-29T10:53:47.183Z,6.07
2018-11-29T10:56:17.003Z,8.07
2018-11-29T10:58:46.912Z,7.13
2018-11-29T11:01:21.812Z,4.13
2018-11-29T11:03:51.711Z,8.73
2018-11-29T11:06:21.678Z,5.27
2018-11-29T11:08:51.744Z,5.53
2018-11-29T11:11:21.708Z,4.70
2018-11-29T11:13:51.622Z,2.10
2018-11-29T11:16:21.440Z,3.67
2018-11-29T11:18:51.450Z,5.50
2018-11-29T11:21:21.498Z,5.60
2018-11-29T11:23:51.453Z,10.73
2018-11-29T11:26:21.407Z,5.63
2018-11-29T11:28:51.333Z,6.40
2018-11-29T11:31:21.236Z,8.03
2018-11-29T11:33:51.284Z,7.47
2018-11-29T11:36:21.232Z,8.57
2018-11-29T11:38:51.189Z,5.60
2018-11-29T11:41:21.004Z,7.27
2018-11-29T11:43:50.916Z,6.30
2018-11-29T11:46:20.854Z,5.60
2018-11-29T11:48:51.049Z,5.23
2018-11-29T11:51:20.965Z,2.87
2018-11-29T11:53:50.903Z,4.43
2018-11-29T11:56:20.792Z,4.23
2018-11-29T11:58:50.814Z,3.10
2018-11-29T12:01:20.637Z,5.03
2018-11-29T12:03:50.540Z,4.00
2018-11-29T12:06:20.483Z,4.43
2018-11-29T12:08:50.473Z,6.20
2018-11-29T12:11:20.410Z,8.10
2018-11-29T12:13:50.198Z,4.00
2018-11-29T12:16:20.112Z,6.03
2018-11-29T12:18:50.031Z,6.22
2018-11-29T12:21:19.946Z,5.93
2018-11-29T12:23:49.907Z,7.97
2018-11-29T12:26:20.093Z,5.73
2018-11-29T12:28:50.096Z,7.17
2018-11-29T12:31:20.050Z,6.83
2018-11-29T12:33:50.037Z,8.97
2018-11-29T12:36:19.948Z,10.73
2018-11-29T12:38:49.859Z,7.47
2018-11-29T12:41:19.775Z,10.90
2018-11-29T12:43:49.719Z,7.53
2018-11-29T12:46:19.823Z,10.70
2018-11-29T12:48:49.828Z,10.40
2018-11-29T12:51:19.692Z,9.53
2018-11-29T12:53:49.659Z,11.43
2018-11-29T12:56:19.599Z,6.70
2018-11-29T12:58:49.504Z,8.40
2018-11-29T13:01:19.508Z,9.30
2018-11-29T13:03:49.338Z,7.83
2018-11-29T13:06:19.338Z,6.03
2018-11-29T13:08:49.383Z,9.67
2018-11-29T13:11:19.266Z,13.70
2018-11-29T13:13:49.183Z,9.33
2018-11-29T13:16:18.995Z,9.63
2018-11-29T13:18:49.015Z,8.33
2018-11-29T13:21:18.964Z,8.67
2018-11-29T13:23:48.907Z,8.17
2018-11-29T13:26:18.990Z,13.83
2018-11-29T13:28:48.875Z,16.00
2018-11-29T13:31:18.902Z,8.80
2018-11-29T13:33:48.934Z,7.20
2018-11-29T13:36:18.775Z,6.43
2018-11-29T13:38:48.743Z,8.27
2018-11-29T13:41:18.557Z,12.27
2018-11-29T13:43:48.468Z,13.37
2018-11-29T13:46:18.487Z,9.57
2018-11-29T13:48:48.416Z,11.17
2018-11-29T13:51:18.316Z,12.93
2018-11-29T13:53:48.139Z,7.80
2018-11-29T13:56:18.045Z,5.23
2018-11-29T13:58:48.087Z,9.50
2018-11-29T14:01:17.996Z,11.23
2018-11-29T14:03:47.991Z,9.03
2018-11-29T14:06:17.935Z,9.20
2018-11-29T14:08:47.940Z,16.77
2018-11-29T14:11:17.839Z,21.00
2018-11-29T14:13:47.651Z,6.70
2018-11-29T14:16:17.567Z,11.30
2018-11-29T14:18:47.620Z,11.70
2018-11-29T14:21:17.566Z,9.07
2018-11-29T14:23:47.723Z,12.00
2018-11-29T14:26:17.576Z,12.30
2018-11-29T14:28:47.823Z,12.27
2018-11-29T14:31:17.776Z,13.27
2018-11-29T14:33:47.613Z,17.60
2018-11-29T14:36:17.604Z,13.17
2018-11-29T14:38:47.522Z,9.03
2018-11-29T14:41:17.435Z,12.33
2018-11-29T14:43:47.380Z,14.80
2018-11-29T14:46:17.320Z,10.97
2018-11-29T14:48:47.284Z,13.17
2018-11-29T14:51:17.095Z,16.00
2018-11-29T14:53:47.036Z,12.10
2018-11-29T14:56:16.924Z,15.00
2018-11-29T14:58:46.944Z,15.30
2018-11-29T15:01:16.860Z,15.27
2018-11-29T15:03:46.697Z,19.07
2018-11-29T15:06:16.687Z,20.83
2018-11-29T15:08:46.756Z,19.80
2018-11-29T15:11:16.686Z,18.97
2018-11-29T15:13:46.639Z,15.47
2018-11-29T15:16:16.656Z,15.73
2018-11-29T15:18:46.673Z,15.90
2018-11-29T15:21:16.616Z,19.13
2018-11-29T15:23:46.636Z,15.40
2018-11-29T15:26:16.723Z,21.43
2018-11-29T15:28:46.668Z,18.80
2018-11-29T15:31:16.560Z,22.33
2018-11-29T15:33:46.572Z,18.60
2018-11-29T15:36:16.519Z,17.53
2018-11-29T15:38:46.467Z,20.10
2018-11-29T15:41:18.201Z,12.40
2018-11-29T15:43:46.361Z,15.17
2018-11-29T15:46:16.811Z,21.33
2018-11-29T15:48:46.780Z,14.67
2018-11-29T15:51:16.591Z,15.70
2018-11-29T15:53:46.575Z,22.93
2018-11-29T15:56:16.470Z,19.10
2018-11-29T15:58:46.440Z,14.83
2018-11-29T16:01:16.384Z,15.13
2018-11-29T16:03:46.270Z,16.70
2018-11-29T16:06:16.184Z,15.77
2018-11-29T16:08:46.099Z,17.57
2018-11-29T16:11:16.016Z,17.77
2018-11-29T16:13:47.870Z,17.13
2018-11-29T16:16:17.692Z,13.07
2018-11-29T16:18:48.646Z,19.17
2018-11-29T16:21:18.502Z,19.33
2018-11-29T16:23:48.484Z,22.27
2018-11-29T16:26:18.434Z,19.80
2018-11-29T16:28:48.387Z,13.17
2018-11-29T16:31:18.228Z,14.37
2018-11-29T16:33:48.319Z,15.63
2018-11-29T16:36:18.263Z,17.03
2018-11-29T16:38:48.151Z,14.43
2018-11-29T16:41:18.063Z,19.53
2018-11-29T16:43:47.899Z,19.67
2018-11-29T16:46:17.795Z,23.60
2018-11-29T16:48:47.911Z,24.33
2018-11-29T16:51:17.729Z,16.80
2018-11-29T16:53:47.639Z,27.20
2018-11-29T16:56:17.455Z,18.37
2018-11-29T16:58:48.498Z,22.33
2018-11-29T17:01:18.308Z,15.67
2018-11-29T17:03:48.224Z,21.63
2018-11-29T17:06:18.067Z,24.57
2018-11-29T17:08:48.052Z,18.10
2018-11-29T17:11:17.990Z,21.47
2018-11-29T17:13:47.885Z,18.53
2018-11-29T17:16:17.795Z,20.10
2018-11-29T17:18:47.606Z,30.87
2018-11-29T17:21:17.524Z,30.33
2018-11-29T17:23:47.476Z,19.40
2018-11-29T17:26:17.379Z,20.67
2018-11-29T17:28:47.577Z,21.67
2018-11-29T17:31:17.420Z,19.17
2018-11-29T17:33:47.402Z,34.53
2018-11-29T17:36:18.259Z,14.67
2018-11-29T17:38:48.261Z,27.73
2018-11-29T17:41:18.100Z,20.90
2018-11-29T17:43:48.092Z,15.97
2018-11-29T17:46:18.041Z,22.37
2018-11-29T17:48:47.947Z,24.47
2018-11-29T17:51:17.941Z,27.50
2018-11-29T17:53:47.775Z,18.90
2018-11-29T17:56:17.872Z,24.53
2018-11-29T17:58:47.890Z,18.93
2018-11-29T18:01:17.723Z,22.97
2018-11-29T18:03:47.716Z,23.00
2018-11-29T18:06:17.631Z,18.63
2018-11-29T18:08:47.555Z,19.47
2018-11-29T18:11:17.464Z,22.30
2018-11-29T18:13:47.806Z,27.47
2018-11-29T18:16:17.665Z,22.50
2018-11-29T18:18:47.651Z,23.90
2018-11-29T18:21:17.560Z,19.40
2018-11-29T18:23:47.555Z,18.23
2018-11-29T18:26:17.465Z,12.80
2018-11-29T18:28:47.392Z,25.97
2018-11-29T18:31:17.324Z,28.20
2018-11-29T18:33:47.210Z,22.43
2018-11-29T18:36:17.123Z,24.80
2018-11-29T18:38:47.243Z,25.23
2018-11-29T18:41:17.055Z,19.07
2018-11-29T18:43:46.971Z,19.93
2018-11-29T18:46:17.281Z,28.90
2018-11-29T18:48:46.800Z,16.10
2018-11-29T18:51:16.612Z,27.23
2018-11-29T18:53:46.528Z,19.27
2018-11-29T18:56:16.480Z,30.27
2018-11-29T18:58:46.359Z,20.60
2018-11-29T19:01:16.376Z,18.63
2018-11-29T19:03:46.216Z,22.93
2018-11-29T19:06:16.204Z,27.60
2018-11-29T19:08:46.250Z,22.93
2018-11-29T19:11:16.151Z,22.77
2018-11-29T19:13:46.056Z,24.70
2018-11-29T19:16:15.983Z,27.20
2018-11-29T19:18:45.983Z,23.27
2018-11-29T19:21:15.931Z,22.03
2018-11-29T19:23:45.816Z,23.33
2018-11-29T19:26:15.732Z,29.97
2018-11-29T19:28:45.643Z,24.63
2018-11-29T19:31:15.560Z,19.80
2018-11-29T19:33:45.679Z,27.70
2018-11-29T19:36:15.802Z,22.77
2018-11-29T19:38:45.723Z,26.20
2018-11-29T19:41:15.655Z,22.10
2018-11-29T19:43:45.545Z,22.03
2018-11-29T19:46:15.462Z,26.13
2018-11-29T19:48:45.510Z,25.90
2018-11-29T19:51:15.422Z,29.63
2018-11-29T19:53:45.407Z,27.87
2018-11-29T19:56:15.220Z,25.73
2018-11-29T19:58:45.240Z,22.00
2018-11-29T20:01:15.187Z,29.37
2018-11-29T20:03:45.541Z,31.97
2018-11-29T20:06:15.499Z,25.20
2018-11-29T20:08:45.540Z,24.93
2018-11-29T20:11:16.311Z,26.77
2018-11-29T20:13:46.176Z,20.17
2018-11-29T20:16:16.078Z,25.77
2018-11-29T20:18:46.099Z,34.10
2018-11-29T20:21:16.012Z,26.20
2018-11-29T20:23:45.943Z,24.00
2018-11-29T20:26:15.739Z,25.30
2018-11-29T20:28:45.754Z,31.13
2018-11-29T20:31:15.699Z,22.63
2018-11-29T20:33:45.496Z,24.23
2018-11-29T20:36:15.703Z,23.43
2018-11-29T20:38:45.619Z,21.27
2018-11-29T20:41:15.540Z,26.97
2018-11-29T20:43:45.479Z,30.63
2018-11-29T20:46:15.363Z,29.97
2018-11-29T20:48:45.996Z,32.77
2018-11-29T20:51:15.910Z,28.47
2018-11-29T20:53:45.723Z,37.50
2018-11-29T20:56:16.252Z,21.83
2018-11-29T20:58:46.271Z,25.77
2018-11-29T21:01:16.236Z,21.27
2018-11-29T21:03:46.166Z,22.97
2018-11-29T21:06:15.939Z,24.30
2018-11-29T21:08:45.892Z,22.60
2018-11-29T21:11:15.844Z,27.47
2018-11-29T21:13:45.688Z,25.20
2018-11-29T21:16:15.782Z,29.17
2018-11-29T21:18:45.832Z,29.00
2018-11-29T21:21:15.774Z,33.40
2018-11-29T21:23:45.726Z,43.00
2018-11-29T21:26:15.543Z,25.33
2018-11-29T21:28:45.559Z,26.57
2018-11-29T21:31:15.502Z,23.53
2018-11-29T21:33:45.391Z,30.50
2018-11-29T21:36:15.404Z,34.17
2018-11-29T21:38:45.456Z,29.07
2018-11-29T21:41:15.354Z,28.07
2018-11-29T21:43:45.355Z,29.60
2018-11-29T21:46:15.168Z,26.33
2018-11-29T21:48:45.291Z,25.87
2018-11-29T21:51:15.205Z,26.87
2018-11-29T21:53:45.019Z,22.20
2018-11-29T21:56:14.926Z,25.47
2018-11-29T21:58:44.843Z,27.70
2018-11-29T22:01:14.759Z,28.83
2018-11-29T22:03:44.576Z,21.60
2018-11-29T22:06:14.591Z,32.30
2018-11-29T22:08:44.639Z,29.60
2018-11-29T22:11:14.524Z,29.73
2018-11-29T22:13:44.539Z,26.97
2018-11-29T22:16:14.507Z,26.30
2018-11-29T22:18:45.495Z,26.07
2018-11-29T22:21:15.318Z,30.70
2018-11-29T22:23:45.227Z,33.97
2018-11-29T22:26:16.277Z,27.77
2018-11-29T22:28:46.284Z,27.13
2018-11-29T22:31:16.233Z,29.27
2018-11-29T22:33:46.111Z,27.73
2018-11-29T22:36:15.976Z,29.43
2018-11-29T22:38:46.078Z,19.50
2018-11-29T22:41:16.059Z,28.57
2018-11-29T22:43:46.007Z,26.10
2018-11-29T22:46:15.891Z,23.63
2018-11-29T22:48:45.907Z,28.77
2018-11-29T22:51:15.758Z,28.63
2018-11-29T22:53:45.738Z,32.90
2018-11-29T22:56:15.659Z,28.63
2018-11-29T22:58:45.633Z,22.03
2018-11-29T23:01:20.347Z,27.50
2018-11-29T23:03:50.173Z,20.00
2018-11-29T23:06:20.144Z,27.20
2018-11-29T23:08:50.092Z,27.93
2018-11-29T23:11:20.061Z,24.63
2018-11-29T23:13:49.871Z,25.20
2018-11-29T23:16:19.749Z,22.93
2018-11-29T23:18:49.607Z,21.93
2018-11-29T23:21:19.514Z,27.50
2018-11-29T23:23:49.839Z,20.43
2018-11-29T23:26:19.680Z,30.20
2018-11-29T23:28:49.467Z,22.27
2018-11-29T23:31:19.412Z,25.93
2018-11-29T23:33:49.395Z,23.13
2018-11-29T23:36:19.312Z,21.83
2018-11-29T23:38:50.667Z,31.90
2018-11-29T23:41:21.425Z,21.30
2018-11-29T23:43:51.412Z,22.03
2018-11-29T23:46:21.355Z,22.37
2018-11-29T23:48:51.240Z,27.40
2018-11-29T23:51:21.155Z,29.00
2018-11-29T23:53:50.970Z,29.13
2018-11-29T23:56:20.884Z,18.20
2018-11-29T23:58:50.939Z,25.33
